sensor_id;sensor_type;location;lat;lon;timestamp;P1;P2;P0
43479;PMS5003;29067;35.492;-97.520;2023-02-28T00:01:47;0;0;
43479;PMS5003;29067;35.492;-97.520;2023-02-28T00:04:16;1;1;
43479;PMS5003;29067;35.492;-97.520;2023-02-28T00:06:48;0;0;
43479;PMS5003;29067;35.492;-97.520;2023-02-28T00:09:17;0;0;
43479;PMS5003;29067;35.492;-97.520;2023-02-28T00:11:44;0;0;
43479;PMS5003;29067;35.492;-97.520;2023-02-28T00:14:12;0;0;
43479;PMS5003;29067;35.492;-97.520;2023-02-28T00:16:40;0;0;
43479;PMS5003;29067;35.492;-97.520;2023-02-28T00:19:07;0;0;
43479;PMS5003;29067;35.492;-97.520;2023-02-28T00:21:35;0;0;
43479;PMS5003;29067;35.492;-97.520;2023-02-28T00:24:03;0;0;
43479;PMS5003;29067;35.492;-97.520;2023-02-28T00:26:32;0;0;
43479;PMS5003;29067;35.492;-97.520;2023-02-28T00:29:00;0;0;
43479;PMS5003;29067;35.492;-97.520;2023-02-28T00:31:28;0;0;
43479;PMS5003;29067;35.492;-97.520;2023-02-28T00:33:55;1;1;
43479;PMS5003;29067;35.492;-97.520;2023-02-28T00:36:23;2;1;
43479;PMS5003;29067;35.492;-97.520;2023-02-28T00:38:52;4;3;
43479;PMS5003;29067;35.492;-97.520;2023-02-28T00:41:19;6;4;
43479;PMS5003;29067;35.492;-97.520;2023-02-28T00:43:47;3;2;
43479;PMS5003;29067;35.492;-97.520;2023-02-28T00:46:15;4;3;
43479;PMS5003;29067;35.492;-97.520;2023-02-28T00:48:42;5;4;
43479;PMS5003;29067;35.492;-97.520;2023-02-28T00:51:11;4;4;
43479;PMS5003;29067;35.492;-97.520;2023-02-28T00:53:38;3;3;
43479;PMS5003;29067;35.492;-97.520;2023-02-28T00:56:06;2;2;
43479;PMS5003;29067;35.492;-97.520;2023-02-28T00:58:35;2;2;
43479;PMS5003;29067;35.492;-97.520;2023-02-28T01:01:02;4;3;
43479;PMS5003;29067;35.492;-97.520;2023-02-28T01:03:31;2;1;
43479;PMS5003;29067;35.492;-97.520;2023-02-28T01:05:59;1;1;
43479;PMS5003;29067;35.492;-97.520;2023-02-28T01:08:29;1;0;
43479;PMS5003;29067;35.492;-97.520;2023-02-28T01:10:56;3;2;
43479;PMS5003;29067;35.492;-97.520;2023-02-28T01:13:24;2;2;
43479;PMS5003;29067;35.492;-97.520;2023-02-28T01:15:52;1;1;
43479;PMS5003;29067;35.492;-97.520;2023-02-28T01:18:22;1;1;
43479;PMS5003;29067;35.492;-97.520;2023-02-28T01:20:50;1;1;
43479;PMS5003;29067;35.492;-97.520;2023-02-28T01:23:18;2;1;
43479;PMS5003;29067;35.492;-97.520;2023-02-28T01:25:47;7;3;
43479;PMS5003;29067;35.492;-97.520;2023-02-28T01:28:15;1;1;
43479;PMS5003;29067;35.492;-97.520;2023-02-28T01:30:47;2;2;
43479;PMS5003;29067;35.492;-97.520;2023-02-28T01:33:15;2;1;
43479;PMS5003;29067;35.492;-97.520;2023-02-28T01:35:43;1;1;
43479;PMS5003;29067;35.492;-97.520;2023-02-28T01:38:11;1;0;
43479;PMS5003;29067;35.492;-97.520;2023-02-28T01:40:39;2;2;
43479;PMS5003;29067;35.492;-97.520;2023-02-28T01:43:09;1;1;
43479;PMS5003;29067;35.492;-97.520;2023-02-28T01:45:48;2;1;
43479;PMS5003;29067;35.492;-97.520;2023-02-28T01:48:16;1;0;
43479;PMS5003;29067;35.492;-97.520;2023-02-28T01:50:46;2;1;
43479;PMS5003;29067;35.492;-97.520;2023-02-28T01:53:17;0;0;
43479;PMS5003;29067;35.492;-97.520;2023-02-28T01:55:48;2;0;
43479;PMS5003;29067;35.492;-97.520;2023-02-28T01:58:19;1;0;
43479;PMS5003;29067;35.492;-97.520;2023-02-28T02:00:48;1;1;
43479;PMS5003;29067;35.492;-97.520;2023-02-28T02:03:17;0;0;
43479;PMS5003;29067;35.492;-97.520;2023-02-28T02:05:47;2;1;
43479;PMS5003;29067;35.492;-97.520;2023-02-28T02:08:17;0;0;
43479;PMS5003;29067;35.492;-97.520;2023-02-28T02:10:47;5;1;
43479;PMS5003;29067;35.492;-97.520;2023-02-28T02:13:21;1;1;
43479;PMS5003;29067;35.492;-97.520;2023-02-28T02:16:04;1;1;
43479;PMS5003;29067;35.492;-97.520;2023-02-28T02:18:45;4;3;
43479;PMS5003;29067;35.492;-97.520;2023-02-28T02:21:24;4;3;
43479;PMS5003;29067;35.492;-97.520;2023-02-28T02:22:22;4;3;
43479;PMS5003;29067;35.492;-97.520;2023-02-28T02:25:18;6;4;
43479;PMS5003;29067;35.492;-97.520;2023-02-28T02:27:59;2;2;
43479;PMS5003;29067;35.492;-97.520;2023-02-28T02:30:55;2;1;
43479;PMS5003;29067;35.492;-97.520;2023-02-28T02:33:45;2;2;
43479;PMS5003;29067;35.492;-97.520;2023-02-28T02:37:28;4;2;
43479;PMS5003;29067;35.492;-97.520;2023-02-28T02:40:06;3;1;
43479;PMS5003;29067;35.492;-97.520;2023-02-28T02:42:40;1;1;
43479;PMS5003;29067;35.492;-97.520;2023-02-28T02:45:21;1;1;
43479;PMS5003;29067;35.492;-97.520;2023-02-28T02:47:53;2;1;
43479;PMS5003;29067;35.492;-97.520;2023-02-28T02:50:24;0;0;
43479;PMS5003;29067;35.492;-97.520;2023-02-28T02:52:56;0;0;
43479;PMS5003;29067;35.492;-97.520;2023-02-28T02:55:28;0;0;
43479;PMS5003;29067;35.492;-97.520;2023-02-28T02:58:00;3;2;
43479;PMS5003;29067;35.492;-97.520;2023-02-28T03:00:32;5;5;
43479;PMS5003;29067;35.492;-97.520;2023-02-28T03:03:04;10;10;
43479;PMS5003;29067;35.492;-97.520;2023-02-28T03:05:39;7;6;
43479;PMS5003;29067;35.492;-97.520;2023-02-28T03:08:12;6;6;
43479;PMS5003;29067;35.492;-97.520;2023-02-28T03:10:46;7;5;
43479;PMS5003;29067;35.492;-97.520;2023-02-28T03:13:23;12;11;
43479;PMS5003;29067;35.492;-97.520;2023-02-28T03:16:36;17;16;
43479;PMS5003;29067;35.492;-97.520;2023-02-28T03:19:23;7;6;
43479;PMS5003;29067;35.492;-97.520;2023-02-28T03:22:09;12;11;
43479;PMS5003;29067;35.492;-97.520;2023-02-28T03:24:49;22;22;
43479;PMS5003;29067;35.492;-97.520;2023-02-28T03:27:24;32;30;
43479;PMS5003;29067;35.492;-97.520;2023-02-28T03:29:58;10;10;
43479;PMS5003;29067;35.492;-97.520;2023-02-28T03:32:33;33;33;
43479;PMS5003;29067;35.492;-97.520;2023-02-28T03:35:07;14;13;
43479;PMS5003;29067;35.492;-97.520;2023-02-28T03:37:40;38;38;
43479;PMS5003;29067;35.492;-97.520;2023-02-28T03:40:12;19;18;
43479;PMS5003;29067;35.492;-97.520;2023-02-28T03:42:44;16;15;
43479;PMS5003;29067;35.492;-97.520;2023-02-28T03:45:18;40;39;
43479;PMS5003;29067;35.492;-97.520;2023-02-28T03:47:55;13;12;
43479;PMS5003;29067;35.492;-97.520;2023-02-28T03:50:27;8;8;
43479;PMS5003;29067;35.492;-97.520;2023-02-28T03:53:02;6;6;
43479;PMS5003;29067;35.492;-97.520;2023-02-28T03:55:39;12;12;
43479;PMS5003;29067;35.492;-97.520;2023-02-28T03:58:12;25;24;
43479;PMS5003;29067;35.492;-97.520;2023-02-28T04:00:49;23;23;
43479;PMS5003;29067;35.492;-97.520;2023-02-28T04:03:22;22;21;
43479;PMS5003;29067;35.492;-97.520;2023-02-28T04:05:51;12;11;
43479;PMS5003;29067;35.492;-97.520;2023-02-28T04:08:21;21;21;
43479;PMS5003;29067;35.492;-97.520;2023-02-28T04:10:51;4;3;
43479;PMS5003;29067;35.492;-97.520;2023-02-28T04:13:25;2;2;
43479;PMS5003;29067;35.492;-97.520;2023-02-28T04:15:53;2;2;
43479;PMS5003;29067;35.492;-97.520;2023-02-28T04:18:20;4;3;
43479;PMS5003;29067;35.492;-97.520;2023-02-28T04:20:48;2;2;
43479;PMS5003;29067;35.492;-97.520;2023-02-28T04:23:16;2;2;
43479;PMS5003;29067;35.492;-97.520;2023-02-28T04:25:49;2;2;
43479;PMS5003;29067;35.492;-97.520;2023-02-28T04:28:17;3;2;
43479;PMS5003;29067;35.492;-97.520;2023-02-28T04:30:46;1;1;
43479;PMS5003;29067;35.492;-97.520;2023-02-28T04:33:22;2;1;
43479;PMS5003;29067;35.492;-97.520;2023-02-28T04:35:57;2;1;
43479;PMS5003;29067;35.492;-97.520;2023-02-28T04:38:26;1;1;
43479;PMS5003;29067;35.492;-97.520;2023-02-28T04:41:00;4;2;
43479;PMS5003;29067;35.492;-97.520;2023-02-28T04:43:29;1;1;
43479;PMS5003;29067;35.492;-97.520;2023-02-28T04:46:00;1;1;
43479;PMS5003;29067;35.492;-97.520;2023-02-28T04:48:30;3;2;
43479;PMS5003;29067;35.492;-97.520;2023-02-28T04:51:05;1;1;
43479;PMS5003;29067;35.492;-97.520;2023-02-28T04:53:35;2;2;
43479;PMS5003;29067;35.492;-97.520;2023-02-28T04:56:05;2;1;
43479;PMS5003;29067;35.492;-97.520;2023-02-28T04:58:35;2;1;
43479;PMS5003;29067;35.492;-97.520;2023-02-28T05:01:03;1;1;
43479;PMS5003;29067;35.492;-97.520;2023-02-28T05:03:34;1;1;
43479;PMS5003;29067;35.492;-97.520;2023-02-28T05:06:02;1;1;
43479;PMS5003;29067;35.492;-97.520;2023-02-28T05:08:31;1;1;
43479;PMS5003;29067;35.492;-97.520;2023-02-28T05:11:00;3;2;
43479;PMS5003;29067;35.492;-97.520;2023-02-28T05:13:29;1;1;
43479;PMS5003;29067;35.492;-97.520;2023-02-28T05:15:57;1;0;
43479;PMS5003;29067;35.492;-97.520;2023-02-28T05:18:24;3;2;
43479;PMS5003;29067;35.492;-97.520;2023-02-28T05:20:53;1;1;
43479;PMS5003;29067;35.492;-97.520;2023-02-28T05:23:21;1;1;
43479;PMS5003;29067;35.492;-97.520;2023-02-28T05:25:50;2;2;
43479;PMS5003;29067;35.492;-97.520;2023-02-28T05:28:18;1;1;
43479;PMS5003;29067;35.492;-97.520;2023-02-28T05:30:47;0;0;
43479;PMS5003;29067;35.492;-97.520;2023-02-28T05:33:15;1;1;
43479;PMS5003;29067;35.492;-97.520;2023-02-28T05:35:42;2;1;
43479;PMS5003;29067;35.492;-97.520;2023-02-28T05:38:10;3;2;
43479;PMS5003;29067;35.492;-97.520;2023-02-28T05:40:38;2;1;
43479;PMS5003;29067;35.492;-97.520;2023-02-28T05:43:08;1;1;
43479;PMS5003;29067;35.492;-97.520;2023-02-28T05:45:38;0;0;
43479;PMS5003;29067;35.492;-97.520;2023-02-28T05:48:07;2;1;
43479;PMS5003;29067;35.492;-97.520;2023-02-28T05:50:37;1;1;
43479;PMS5003;29067;35.492;-97.520;2023-02-28T05:53:05;1;1;
43479;PMS5003;29067;35.492;-97.520;2023-02-28T05:55:33;1;1;
43479;PMS5003;29067;35.492;-97.520;2023-02-28T05:58:00;1;1;
43479;PMS5003;29067;35.492;-97.520;2023-02-28T06:00:28;1;1;
43479;PMS5003;29067;35.492;-97.520;2023-02-28T06:02:56;2;1;
43479;PMS5003;29067;35.492;-97.520;2023-02-28T06:05:24;1;1;
43479;PMS5003;29067;35.492;-97.520;2023-02-28T06:07:52;2;1;
43479;PMS5003;29067;35.492;-97.520;2023-02-28T06:10:19;2;2;
43479;PMS5003;29067;35.492;-97.520;2023-02-28T06:12:48;1;1;
43479;PMS5003;29067;35.492;-97.520;2023-02-28T06:15:16;2;2;
43479;PMS5003;29067;35.492;-97.520;2023-02-28T06:17:44;1;1;
43479;PMS5003;29067;35.492;-97.520;2023-02-28T06:20:12;2;1;
43479;PMS5003;29067;35.492;-97.520;2023-02-28T06:22:39;1;1;
43479;PMS5003;29067;35.492;-97.520;2023-02-28T06:25:08;1;1;
43479;PMS5003;29067;35.492;-97.520;2023-02-28T06:27:37;1;1;
43479;PMS5003;29067;35.492;-97.520;2023-02-28T06:30:05;2;2;
43479;PMS5003;29067;35.492;-97.520;2023-02-28T06:32:35;2;1;
43479;PMS5003;29067;35.492;-97.520;2023-02-28T06:35:03;1;1;
43479;PMS5003;29067;35.492;-97.520;2023-02-28T06:37:31;2;2;
43479;PMS5003;29067;35.492;-97.520;2023-02-28T06:40:00;1;1;
43479;PMS5003;29067;35.492;-97.520;2023-02-28T06:42:28;2;1;
43479;PMS5003;29067;35.492;-97.520;2023-02-28T06:44:56;2;1;
43479;PMS5003;29067;35.492;-97.520;2023-02-28T06:47:25;2;2;
43479;PMS5003;29067;35.492;-97.520;2023-02-28T06:49:53;1;1;
43479;PMS5003;29067;35.492;-97.520;2023-02-28T06:52:21;2;1;
43479;PMS5003;29067;35.492;-97.520;2023-02-28T06:54:49;1;1;
43479;PMS5003;29067;35.492;-97.520;2023-02-28T06:57:16;3;3;
43479;PMS5003;29067;35.492;-97.520;2023-02-28T06:59:44;2;1;
43479;PMS5003;29067;35.492;-97.520;2023-02-28T07:02:12;1;1;
43479;PMS5003;29067;35.492;-97.520;2023-02-28T07:04:40;2;1;
43479;PMS5003;29067;35.492;-97.520;2023-02-28T07:07:08;2;2;
43479;PMS5003;29067;35.492;-97.520;2023-02-28T07:09:36;3;2;
43479;PMS5003;29067;35.492;-97.520;2023-02-28T07:12:05;5;2;
43479;PMS5003;29067;35.492;-97.520;2023-02-28T07:14:32;3;2;
43479;PMS5003;29067;35.492;-97.520;2023-02-28T07:17:08;2;2;
43479;PMS5003;29067;35.492;-97.520;2023-02-28T07:19:41;4;3;
43479;PMS5003;29067;35.492;-97.520;2023-02-28T07:22:10;4;3;
43479;PMS5003;29067;35.492;-97.520;2023-02-28T07:24:38;4;3;
43479;PMS5003;29067;35.492;-97.520;2023-02-28T07:27:06;2;2;
43479;PMS5003;29067;35.492;-97.520;2023-02-28T07:29:34;3;2;
43479;PMS5003;29067;35.492;-97.520;2023-02-28T07:32:03;4;3;
43479;PMS5003;29067;35.492;-97.520;2023-02-28T07:34:31;3;3;
43479;PMS5003;29067;35.492;-97.520;2023-02-28T07:36:59;3;1;
43479;PMS5003;29067;35.492;-97.520;2023-02-28T07:39:27;3;3;
43479;PMS5003;29067;35.492;-97.520;2023-02-28T07:41:55;3;2;
43479;PMS5003;29067;35.492;-97.520;2023-02-28T07:44:23;4;2;
43479;PMS5003;29067;35.492;-97.520;2023-02-28T07:46:51;3;3;
43479;PMS5003;29067;35.492;-97.520;2023-02-28T07:49:19;3;2;
43479;PMS5003;29067;35.492;-97.520;2023-02-28T07:51:47;4;3;
43479;PMS5003;29067;35.492;-97.520;2023-02-28T07:54:15;3;3;
43479;PMS5003;29067;35.492;-97.520;2023-02-28T07:56:43;3;2;
43479;PMS5003;29067;35.492;-97.520;2023-02-28T07:59:11;3;1;
43479;PMS5003;29067;35.492;-97.520;2023-02-28T08:01:39;3;3;
43479;PMS5003;29067;35.492;-97.520;2023-02-28T08:04:07;3;1;
43479;PMS5003;29067;35.492;-97.520;2023-02-28T08:06:35;3;2;
43479;PMS5003;29067;35.492;-97.520;2023-02-28T08:09:03;1;1;
43479;PMS5003;29067;35.492;-97.520;2023-02-28T08:11:31;1;1;
43479;PMS5003;29067;35.492;-97.520;2023-02-28T08:13:59;2;1;
43479;PMS5003;29067;35.492;-97.520;2023-02-28T08:16:27;2;1;
43479;PMS5003;29067;35.492;-97.520;2023-02-28T08:18:55;2;1;
43479;PMS5003;29067;35.492;-97.520;2023-02-28T08:21:23;1;1;
43479;PMS5003;29067;35.492;-97.520;2023-02-28T08:23:50;2;1;
43479;PMS5003;29067;35.492;-97.520;2023-02-28T08:26:18;1;1;
43479;PMS5003;29067;35.492;-97.520;2023-02-28T08:28:47;3;2;
43479;PMS5003;29067;35.492;-97.520;2023-02-28T08:31:17;2;2;
43479;PMS5003;29067;35.492;-97.520;2023-02-28T08:34:04;1;1;
43479;PMS5003;29067;35.492;-97.520;2023-02-28T08:36:33;1;1;
43479;PMS5003;29067;35.492;-97.520;2023-02-28T08:39:02;1;0;
43479;PMS5003;29067;35.492;-97.520;2023-02-28T08:41:31;6;2;
43479;PMS5003;29067;35.492;-97.520;2023-02-28T08:43:59;4;2;
43479;PMS5003;29067;35.492;-97.520;2023-02-28T08:46:28;1;1;
43479;PMS5003;29067;35.492;-97.520;2023-02-28T08:48:56;2;1;
43479;PMS5003;29067;35.492;-97.520;2023-02-28T08:51:25;1;1;
43479;PMS5003;29067;35.492;-97.520;2023-02-28T08:53:54;0;0;
43479;PMS5003;29067;35.492;-97.520;2023-02-28T08:56:24;2;1;
43479;PMS5003;29067;35.492;-97.520;2023-02-28T08:58:53;3;3;
43479;PMS5003;29067;35.492;-97.520;2023-02-28T09:01:24;1;1;
43479;PMS5003;29067;35.492;-97.520;2023-02-28T09:03:53;3;3;
43479;PMS5003;29067;35.492;-97.520;2023-02-28T09:06:23;1;1;
43479;PMS5003;29067;35.492;-97.520;2023-02-28T09:08:53;2;1;
43479;PMS5003;29067;35.492;-97.520;2023-02-28T09:11:24;0;0;
43479;PMS5003;29067;35.492;-97.520;2023-02-28T09:13:53;1;1;
43479;PMS5003;29067;35.492;-97.520;2023-02-28T09:16:21;2;1;
43479;PMS5003;29067;35.492;-97.520;2023-02-28T09:18:49;1;0;
43479;PMS5003;29067;35.492;-97.520;2023-02-28T09:21:18;2;1;
43479;PMS5003;29067;35.492;-97.520;2023-02-28T09:23:46;1;1;
43479;PMS5003;29067;35.492;-97.520;2023-02-28T09:26:16;3;2;
43479;PMS5003;29067;35.492;-97.520;2023-02-28T09:28:46;1;1;
43479;PMS5003;29067;35.492;-97.520;2023-02-28T09:31:15;2;1;
43479;PMS5003;29067;35.492;-97.520;2023-02-28T09:33:46;2;2;
43479;PMS5003;29067;35.492;-97.520;2023-02-28T09:36:15;1;1;
43479;PMS5003;29067;35.492;-97.520;2023-02-28T09:38:51;1;1;
43479;PMS5003;29067;35.492;-97.520;2023-02-28T09:41:21;0;0;
43479;PMS5003;29067;35.492;-97.520;2023-02-28T09:43:56;2;2;
43479;PMS5003;29067;35.492;-97.520;2023-02-28T09:46:29;1;1;
43479;PMS5003;29067;35.492;-97.520;2023-02-28T09:49:02;2;1;
43479;PMS5003;29067;35.492;-97.520;2023-02-28T09:51:46;3;1;
43479;PMS5003;29067;35.492;-97.520;2023-02-28T09:54:26;1;1;
43479;PMS5003;29067;35.492;-97.520;2023-02-28T09:56:57;1;1;
43479;PMS5003;29067;35.492;-97.520;2023-02-28T09:59:35;1;1;
43479;PMS5003;29067;35.492;-97.520;2023-02-28T10:02:19;3;1;
43479;PMS5003;29067;35.492;-97.520;2023-02-28T10:05:16;1;1;
43479;PMS5003;29067;35.492;-97.520;2023-02-28T10:07:52;2;1;
43479;PMS5003;29067;35.492;-97.520;2023-02-28T10:10:29;2;0;
43479;PMS5003;29067;35.492;-97.520;2023-02-28T10:13:13;2;2;
43479;PMS5003;29067;35.492;-97.520;2023-02-28T10:15:46;1;1;
43479;PMS5003;29067;35.492;-97.520;2023-02-28T10:18:20;2;1;
43479;PMS5003;29067;35.492;-97.520;2023-02-28T10:20:52;3;2;
43479;PMS5003;29067;35.492;-97.520;2023-02-28T10:23:23;1;1;
43479;PMS5003;29067;35.492;-97.520;2023-02-28T10:25:54;2;1;
43479;PMS5003;29067;35.492;-97.520;2023-02-28T10:28:25;0;0;
43479;PMS5003;29067;35.492;-97.520;2023-02-28T10:30:55;2;1;
43479;PMS5003;29067;35.492;-97.520;2023-02-28T10:33:27;5;2;
43479;PMS5003;29067;35.492;-97.520;2023-02-28T10:35:58;1;1;
43479;PMS5003;29067;35.492;-97.520;2023-02-28T10:38:28;1;0;
43479;PMS5003;29067;35.492;-97.520;2023-02-28T10:41:04;1;1;
43479;PMS5003;29067;35.492;-97.520;2023-02-28T10:43:35;2;2;
43479;PMS5003;29067;35.492;-97.520;2023-02-28T10:46:12;3;1;
43479;PMS5003;29067;35.492;-97.520;2023-02-28T10:48:43;2;1;
43479;PMS5003;29067;35.492;-97.520;2023-02-28T10:51:15;1;1;
43479;PMS5003;29067;35.492;-97.520;2023-02-28T10:53:47;1;1;
43479;PMS5003;29067;35.492;-97.520;2023-02-28T10:56:17;2;1;
43479;PMS5003;29067;35.492;-97.520;2023-02-28T10:58:48;2;1;
43479;PMS5003;29067;35.492;-97.520;2023-02-28T11:01:20;2;2;
43479;PMS5003;29067;35.492;-97.520;2023-02-28T11:03:50;3;1;
43479;PMS5003;29067;35.492;-97.520;2023-02-28T11:06:19;1;1;
43479;PMS5003;29067;35.492;-97.520;2023-02-28T11:08:51;1;1;
43479;PMS5003;29067;35.492;-97.520;2023-02-28T11:11:22;1;1;
43479;PMS5003;29067;35.492;-97.520;2023-02-28T11:13:53;2;2;
43479;PMS5003;29067;35.492;-97.520;2023-02-28T11:16:30;1;1;
43479;PMS5003;29067;35.492;-97.520;2023-02-28T11:19:00;1;1;
43479;PMS5003;29067;35.492;-97.520;2023-02-28T11:21:32;0;0;
43479;PMS5003;29067;35.492;-97.520;2023-02-28T11:24:04;3;2;
43479;PMS5003;29067;35.492;-97.520;2023-02-28T11:26:42;2;1;
43479;PMS5003;29067;35.492;-97.520;2023-02-28T11:29:17;1;1;
43479;PMS5003;29067;35.492;-97.520;2023-02-28T11:32:01;1;0;
43479;PMS5003;29067;35.492;-97.520;2023-02-28T11:34:31;3;1;
43479;PMS5003;29067;35.492;-97.520;2023-02-28T11:37:00;4;1;
43479;PMS5003;29067;35.492;-97.520;2023-02-28T11:39:30;1;0;
43479;PMS5003;29067;35.492;-97.520;2023-02-28T11:42:04;2;1;
43479;PMS5003;29067;35.492;-97.520;2023-02-28T11:44:45;0;0;
43479;PMS5003;29067;35.492;-97.520;2023-02-28T11:47:26;2;0;
43479;PMS5003;29067;35.492;-97.520;2023-02-28T11:50:07;0;0;
43479;PMS5003;29067;35.492;-97.520;2023-02-28T11:53:04;0;0;
43479;PMS5003;29067;35.492;-97.520;2023-02-28T11:55:41;2;0;
43479;PMS5003;29067;35.492;-97.520;2023-02-28T11:58:26;1;1;
43479;PMS5003;29067;35.492;-97.520;2023-02-28T12:03:01;1;0;
43479;PMS5003;29067;35.492;-97.520;2023-02-28T12:05:41;0;0;
43479;PMS5003;29067;35.492;-97.520;2023-02-28T12:08:21;1;1;
43479;PMS5003;29067;35.492;-97.520;2023-02-28T12:11:02;1;0;
43479;PMS5003;29067;35.492;-97.520;2023-02-28T12:13:45;3;1;
43479;PMS5003;29067;35.492;-97.520;2023-02-28T12:16:26;4;2;
43479;PMS5003;29067;35.492;-97.520;2023-02-28T12:19:06;5;5;
43479;PMS5003;29067;35.492;-97.520;2023-02-28T12:21:47;8;7;
43479;PMS5003;29067;35.492;-97.520;2023-02-28T12:24:34;10;10;
43479;PMS5003;29067;35.492;-97.520;2023-02-28T12:27:15;14;12;
43479;PMS5003;29067;35.492;-97.520;2023-02-28T12:29:47;16;16;
43479;PMS5003;29067;35.492;-97.520;2023-02-28T12:32:23;18;17;
43479;PMS5003;29067;35.492;-97.520;2023-02-28T12:34:57;18;18;
43479;PMS5003;29067;35.492;-97.520;2023-02-28T12:37:31;16;16;
43479;PMS5003;29067;35.492;-97.520;2023-02-28T12:40:06;11;11;
43479;PMS5003;29067;35.492;-97.520;2023-02-28T12:42:40;10;10;
43479;PMS5003;29067;35.492;-97.520;2023-02-28T12:45:19;11;9;
43479;PMS5003;29067;35.492;-97.520;2023-02-28T12:47:56;5;5;
43479;PMS5003;29067;35.492;-97.520;2023-02-28T12:50:27;5;4;
43479;PMS5003;29067;35.492;-97.520;2023-02-28T12:53:02;4;4;
43479;PMS5003;29067;35.492;-97.520;2023-02-28T12:55:45;2;1;
43479;PMS5003;29067;35.492;-97.520;2023-02-28T12:58:19;1;0;
43479;PMS5003;29067;35.492;-97.520;2023-02-28T13:01:02;1;1;
43479;PMS5003;29067;35.492;-97.520;2023-02-28T13:04:07;2;0;
43479;PMS5003;29067;35.492;-97.520;2023-02-28T13:07:19;2;1;
43479;PMS5003;29067;35.492;-97.520;2023-02-28T13:11:23;1;1;
43479;PMS5003;29067;35.492;-97.520;2023-02-28T13:13:57;7;7;
43479;PMS5003;29067;35.492;-97.520;2023-02-28T13:16:27;9;8;
43479;PMS5003;29067;35.492;-97.520;2023-02-28T13:19:16;4;2;
43479;PMS5003;29067;35.492;-97.520;2023-02-28T13:21:46;0;0;
43479;PMS5003;29067;35.492;-97.520;2023-02-28T13:24:37;0;0;
43479;PMS5003;29067;35.492;-97.520;2023-02-28T13:27:24;1;1;
43479;PMS5003;29067;35.492;-97.520;2023-02-28T13:30:00;2;2;
43479;PMS5003;29067;35.492;-97.520;2023-02-28T13:33:24;1;1;
43479;PMS5003;29067;35.492;-97.520;2023-02-28T13:36:21;2;2;
43479;PMS5003;29067;35.492;-97.520;2023-02-28T13:38:52;2;1;
43479;PMS5003;29067;35.492;-97.520;2023-02-28T13:41:53;2;2;
43479;PMS5003;29067;35.492;-97.520;2023-02-28T13:44:22;3;2;
43479;PMS5003;29067;35.492;-97.520;2023-02-28T13:47:28;2;2;
43479;PMS5003;29067;35.492;-97.520;2023-02-28T13:50:32;1;1;
43479;PMS5003;29067;35.492;-97.520;2023-02-28T13:53:11;3;2;
43479;PMS5003;29067;35.492;-97.520;2023-02-28T13:56:23;2;2;
43479;PMS5003;29067;35.492;-97.520;2023-02-28T13:59:03;3;2;
43479;PMS5003;29067;35.492;-97.520;2023-02-28T14:01:56;4;3;
43479;PMS5003;29067;35.492;-97.520;2023-02-28T14:05:00;1;1;
43479;PMS5003;29067;35.492;-97.520;2023-02-28T14:07:32;3;1;
43479;PMS5003;29067;35.492;-97.520;2023-02-28T14:10:19;1;1;
43479;PMS5003;29067;35.492;-97.520;2023-02-28T14:12:55;0;0;
43479;PMS5003;29067;35.492;-97.520;2023-02-28T14:15:30;0;0;
43479;PMS5003;29067;35.492;-97.520;2023-02-28T14:18:18;1;1;
43479;PMS5003;29067;35.492;-97.520;2023-02-28T14:20:49;0;0;
43479;PMS5003;29067;35.492;-97.520;2023-02-28T14:23:26;1;1;
43479;PMS5003;29067;35.492;-97.520;2023-02-28T14:26:06;2;2;
43479;PMS5003;29067;35.492;-97.520;2023-02-28T14:28:44;1;0;
43479;PMS5003;29067;35.492;-97.520;2023-02-28T14:31:23;1;1;
43479;PMS5003;29067;35.492;-97.520;2023-02-28T14:34:01;1;0;
43479;PMS5003;29067;35.492;-97.520;2023-02-28T14:36:44;2;2;
43479;PMS5003;29067;35.492;-97.520;2023-02-28T14:39:13;0;0;
43479;PMS5003;29067;35.492;-97.520;2023-02-28T14:41:44;1;1;
43479;PMS5003;29067;35.492;-97.520;2023-02-28T14:44:14;0;0;
43479;PMS5003;29067;35.492;-97.520;2023-02-28T14:46:47;2;2;
43479;PMS5003;29067;35.492;-97.520;2023-02-28T14:49:18;1;0;
43479;PMS5003;29067;35.492;-97.520;2023-02-28T14:51:50;0;0;
43479;PMS5003;29067;35.492;-97.520;2023-02-28T14:54:30;17;17;
43479;PMS5003;29067;35.492;-97.520;2023-02-28T14:56:58;3;3;
43479;PMS5003;29067;35.492;-97.520;2023-02-28T14:59:27;1;1;
43479;PMS5003;29067;35.492;-97.520;2023-02-28T15:02:31;0;0;
43479;PMS5003;29067;35.492;-97.520;2023-02-28T15:05:10;1;0;
43479;PMS5003;29067;35.492;-97.520;2023-02-28T15:07:49;0;0;
43479;PMS5003;29067;35.492;-97.520;2023-02-28T15:10:33;2;1;
43479;PMS5003;29067;35.492;-97.520;2023-02-28T15:13:02;1;1;
43479;PMS5003;29067;35.492;-97.520;2023-02-28T15:15:41;0;0;
43479;PMS5003;29067;35.492;-97.520;2023-02-28T15:18:14;1;1;
43479;PMS5003;29067;35.492;-97.520;2023-02-28T15:20:48;1;1;
43479;PMS5003;29067;35.492;-97.520;2023-02-28T15:23:18;2;1;
43479;PMS5003;29067;35.492;-97.520;2023-02-28T15:25:48;2;2;
43479;PMS5003;29067;35.492;-97.520;2023-02-28T15:28:18;1;1;
43479;PMS5003;29067;35.492;-97.520;2023-02-28T15:30:57;0;0;
43479;PMS5003;29067;35.492;-97.520;2023-02-28T15:33:28;1;0;
43479;PMS5003;29067;35.492;-97.520;2023-02-28T15:36:14;3;2;
43479;PMS5003;29067;35.492;-97.520;2023-02-28T15:38:45;0;0;
43479;PMS5003;29067;35.492;-97.520;2023-02-28T15:41:23;1;1;
43479;PMS5003;29067;35.492;-97.520;2023-02-28T15:44:27;2;1;
43479;PMS5003;29067;35.492;-97.520;2023-02-28T15:47:00;3;1;
43479;PMS5003;29067;35.492;-97.520;2023-02-28T15:49:32;1;1;
43479;PMS5003;29067;35.492;-97.520;2023-02-28T15:52:09;2;0;
43479;PMS5003;29067;35.492;-97.520;2023-02-28T15:54:44;1;1;
43479;PMS5003;29067;35.492;-97.520;2023-02-28T15:57:20;0;0;
43479;PMS5003;29067;35.492;-97.520;2023-02-28T15:59:51;1;0;
43479;PMS5003;29067;35.492;-97.520;2023-02-28T16:02:31;1;0;
43479;PMS5003;29067;35.492;-97.520;2023-02-28T16:05:18;0;0;
43479;PMS5003;29067;35.492;-97.520;2023-02-28T16:07:49;0;0;
43479;PMS5003;29067;35.492;-97.520;2023-02-28T16:10:17;0;0;
43479;PMS5003;29067;35.492;-97.520;2023-02-28T16:12:53;0;0;
43479;PMS5003;29067;35.492;-97.520;2023-02-28T16:15:34;1;1;
43479;PMS5003;29067;35.492;-97.520;2023-02-28T16:18:10;0;0;
43479;PMS5003;29067;35.492;-97.520;2023-02-28T16:20:40;1;1;
43479;PMS5003;29067;35.492;-97.520;2023-02-28T16:23:08;1;0;
43479;PMS5003;29067;35.492;-97.520;2023-02-28T16:25:36;1;1;
43479;PMS5003;29067;35.492;-97.520;2023-02-28T16:28:08;0;0;
43479;PMS5003;29067;35.492;-97.520;2023-02-28T16:30:47;1;1;
43479;PMS5003;29067;35.492;-97.520;2023-02-28T16:33:17;1;0;
43479;PMS5003;29067;35.492;-97.520;2023-02-28T16:35:45;2;1;
43479;PMS5003;29067;35.492;-97.520;2023-02-28T16:38:12;1;1;
43479;PMS5003;29067;35.492;-97.520;2023-02-28T16:40:40;1;1;
43479;PMS5003;29067;35.492;-97.520;2023-02-28T16:43:12;34;34;
43479;PMS5003;29067;35.492;-97.520;2023-02-28T16:45:44;5;5;
43479;PMS5003;29067;35.492;-97.520;2023-02-28T16:48:12;4;4;
43479;PMS5003;29067;35.492;-97.520;2023-02-28T16:50:42;1;1;
43479;PMS5003;29067;35.492;-97.520;2023-02-28T16:53:10;0;0;
43479;PMS5003;29067;35.492;-97.520;2023-02-28T16:55:38;1;0;
43479;PMS5003;29067;35.492;-97.520;2023-02-28T16:58:10;0;0;
43479;PMS5003;29067;35.492;-97.520;2023-02-28T17:00:41;1;0;